ADDS METAR Data INFO
IDs: Format: Raw Decoded Include TAF

Data at: 1243 UTC 19 Oct 2017

PATG 191156Z AUTO 31007KT 10SM FEW029 M01/M03 A2963 RMK AO2 SLP128 6//// 7//// T10061033 10006 21011 50000 FZRANO PNO $
PATG 191056Z AUTO 28007KT 10SM FEW040 M01/M03 A2963 RMK AO2 SLP128 T10061028 FZRANO PNO $
PATG 190956Z AUTO 31008KT 10SM CLR M01/M03 A2963 RMK AO2 SLP129 T10061033 FZRANO PNO $
PATG 190856Z AUTO 30008KT 10SM CLR M01/M03 A2963 RMK AO2 SLP128 6//// T10061028 400391011 53003 FZRANO PNO $
PATG 182356Z AUTO 32012G18KT 10SM SCT040 04/M04 A2959 RMK AO2 SLP115 6//// T00391039 10039 20011 58004 PNO $
PATG 182256Z AUTO 33015G24KT 10SM BKN035 03/M04 A2960 RMK AO2 SLP119 T00281039 PNO $
PATG 182156Z AUTO 31014KT 10SM CLR 03/M03 A2960 RMK AO2 SLP118 T00281033 PNO $
PATG 182056Z AUTO 30017KT 10SM CLR 03/M03 A2960 RMK AO2 SLP118 6//// T00281033 50003 PNO $
PATG 181956Z AUTO 30015G19KT 10SM FEW044 03/M03 A2960 RMK AO2 SLP119 T00281033 PNO $
PATG 181756Z AUTO 32009KT 10SM OVC043 01/M03 A2959 RMK AO2 SLP115 6//// T00111028 10017 21006 53004 FZRANO PNO $
PATG 181656Z AUTO 28006KT 10SM CLR 00/M03 A2958 RMK AO2 SLP113 T00001028 FZRANO PNO $
PATG 181456Z AUTO 31009KT 10SM BKN037 00/M03 A2958 RMK AO2 SLP111 6//// T00001028 51006 FZRANO PNO $
PATG 181356Z AUTO 32004KT 10SM BKN037 01/M04 A2958 RMK AO2 SLP110 T00111039 FZRANO PNO $
PATG 181256Z AUTO 31009KT 10SM CLR 00/M04 A2957 RMK AO2 SLP107 T00001039 FZRANO PNO $
PATG 181156Z AUTO 33008KT 10SM CLR 00/M04 A2956 RMK AO2 SLP105 6//// 7//// T00001044 10006 21022 51007 FZRANO PNO $
PATG 181056Z AUTO 31006KT 10SM CLR M01/M04 A2956 RMK AO2 SLP104 T10061044 FZRANO PNO $
PATG 180856Z AUTO 32005KT 10SM CLR M01/M04 A2954 RMK AO2 SLP097 6//// T10111039 400501022 53021 FZRANO PNO $
PATG 180656Z AUTO 36004KT 10SM CLR M01/M03 A2950 RMK AO2 SLP083 T10111033 FZRANO PNO $
PATG 180556Z AUTO 35006KT 10SM CLR 00/M03 A2948 RMK AO2 SLP076 6//// T00001033 10050 21006 51024 FZRANO PNO $
PATG 180456Z AUTO 34005KT 10SM CLR 01/M03 A2946 RMK AO2 SLP069 T00111033 FZRANO PNO $
PATG 180156Z AUTO 02005KT 10SM CLR 04/M03 A2938 RMK AO2 SLP044 T00391028 PNO $
PATG 180056Z AUTO 02009KT 10SM CLR 05/M03 A2937 RMK AO2 SLP040 T00501028 PNO $